createdAt,value
2018-11-22T12:19:06.514Z,16.70
2018-11-22T12:24:09.733Z,17.20
2018-11-22T12:29:13.299Z,16.33
2018-11-22T12:34:20.429Z,17.07
2018-11-22T12:39:23.687Z,17.00
2018-11-22T12:44:26.909Z,16.83
2018-11-22T12:49:30.152Z,17.10
2018-11-22T12:54:33.389Z,15.87
2018-11-22T12:59:36.628Z,15.50
2018-11-22T13:04:39.858Z,14.47
2018-11-22T13:09:43.105Z,14.10
2018-11-22T13:14:46.313Z,15.40
2018-11-22T13:19:49.532Z,14.77
2018-11-22T13:24:52.753Z,15.07
2018-11-22T13:29:55.993Z,14.97
2018-11-22T13:34:59.223Z,14.70
2018-11-22T13:40:02.437Z,14.80
2018-11-22T13:45:09.485Z,15.43
2018-11-22T13:50:16.116Z,15.07
2018-11-22T13:55:19.333Z,14.23
2018-11-22T14:00:23.813Z,15.57
2018-11-22T14:05:27.068Z,15.83
2018-11-22T14:10:30.293Z,13.17
2018-11-22T14:15:33.520Z,13.37
2018-11-22T14:20:37.150Z,12.97
2018-11-22T14:25:40.349Z,15.50
2018-11-22T14:30:43.552Z,15.47
2018-11-22T14:35:46.833Z,13.07
2018-11-22T14:40:50.061Z,15.03
2018-11-22T14:45:53.269Z,15.40
2018-11-22T14:51:01.127Z,15.37
2018-11-22T14:56:05.235Z,13.53
2018-11-22T15:01:07.753Z,15.17
2018-11-22T15:06:10.976Z,15.67
2018-11-22T15:11:14.198Z,14.40
2018-11-22T15:16:17.412Z,13.33
2018-11-22T15:21:20.652Z,14.27
2018-11-22T15:26:23.908Z,16.70
2018-11-22T15:31:27.185Z,15.30
2018-11-22T15:36:30.405Z,14.23
2018-11-22T15:41:33.625Z,13.40
2018-11-22T15:46:36.866Z,13.90
2018-11-22T15:51:40.085Z,14.40
2018-11-22T15:56:43.309Z,16.40
2018-11-22T16:01:46.543Z,14.37
2018-11-22T16:06:49.761Z,14.57
2018-11-22T16:11:52.993Z,13.40
2018-11-22T16:16:56.253Z,14.80
2018-11-22T16:21:59.485Z,13.20
2018-11-22T16:27:03.008Z,13.27
2018-11-22T16:32:06.222Z,13.97
2018-11-22T16:37:09.461Z,15.73
2018-11-22T16:42:12.721Z,13.30
2018-11-22T16:47:15.973Z,15.53
2018-11-22T16:52:19.208Z,13.60
2018-11-22T16:57:22.412Z,13.50
2018-11-22T17:02:25.659Z,17.57
2018-11-22T17:07:28.876Z,17.03
2018-11-22T17:12:32.103Z,19.03
2018-11-22T17:17:35.348Z,21.87
2018-11-22T17:22:40.153Z,19.97
2018-11-22T17:27:44.120Z,18.80
2018-11-22T17:32:47.365Z,17.10
2018-11-22T17:37:51.109Z,17.43
2018-11-22T17:42:54.396Z,18.30
2018-11-22T17:47:57.748Z,17.20
2018-11-22T17:53:01.369Z,17.23
2018-11-22T17:58:04.906Z,16.13
2018-11-22T18:03:08.447Z,17.40
2018-11-22T18:08:11.757Z,18.07
2018-11-22T18:13:15.117Z,23.70
2018-11-22T18:18:18.396Z,22.97
2018-11-22T18:23:21.673Z,18.07
2018-11-22T18:28:24.919Z,16.97
2018-11-22T18:33:28.236Z,16.23
2018-11-22T18:38:31.501Z,15.77
2018-11-22T18:43:35.400Z,18.00
2018-11-22T18:48:38.021Z,18.03
2018-11-22T18:53:41.294Z,21.50
2018-11-22T18:58:44.532Z,19.87
2018-11-22T19:03:47.786Z,19.60
2018-11-22T19:08:51.020Z,18.00
2018-11-22T19:13:54.269Z,17.20
2018-11-22T19:18:57.770Z,16.70
2018-11-22T19:24:01.214Z,16.50
2018-11-22T19:29:04.645Z,16.70
2018-11-22T19:34:08.081Z,17.80
2018-11-22T19:39:11.321Z,16.83
2018-11-22T19:44:14.561Z,15.70
2018-11-22T19:49:17.795Z,14.70
2018-11-22T19:54:21.047Z,13.53
2018-11-22T19:59:24.323Z,15.93
2018-11-22T20:04:27.547Z,15.93
2018-11-22T20:09:30.817Z,15.63
2018-11-22T20:14:34.081Z,15.23
2018-11-22T20:19:37.533Z,14.53
2018-11-22T20:24:40.873Z,15.20
2018-11-22T20:29:44.153Z,14.90
2018-11-22T20:34:47.461Z,13.30
2018-11-22T20:39:50.961Z,15.53
2018-11-22T20:44:54.294Z,15.40
2018-11-22T20:49:57.545Z,14.33
2018-11-22T20:55:00.832Z,13.20
2018-11-22T21:00:05.591Z,14.37
2018-11-22T21:05:09.892Z,13.93
2018-11-22T21:10:16.390Z,14.70
2018-11-22T21:15:22.628Z,16.03
2018-11-22T21:20:27.518Z,13.93
2018-11-22T21:25:30.788Z,14.30
2018-11-22T21:30:35.384Z,14.33
2018-11-22T21:35:38.652Z,16.13
2018-11-22T21:40:41.949Z,14.07
2018-11-22T21:45:45.375Z,14.60
2018-11-22T21:50:48.592Z,13.50
2018-11-22T21:55:51.818Z,15.57
2018-11-22T22:00:55.046Z,15.07
2018-11-22T22:05:58.289Z,14.93
2018-11-22T22:11:01.522Z,14.60
2018-11-22T22:16:04.879Z,14.20
2018-11-22T22:21:08.131Z,16.03
2018-11-22T22:26:11.365Z,13.60
2018-11-22T22:31:14.609Z,14.30
2018-11-22T22:36:17.833Z,15.23
2018-11-22T22:41:21.077Z,14.70
2018-11-22T22:46:24.345Z,13.10
2018-11-22T22:51:27.596Z,14.63
2018-11-22T22:56:30.837Z,14.80
2018-11-22T23:01:34.081Z,13.80
2018-11-22T23:06:37.341Z,13.73
2018-11-22T23:11:40.565Z,14.30
2018-11-22T23:16:43.782Z,13.30
2018-11-22T23:26:56.553Z,14.00
2018-11-22T23:31:59.793Z,12.27
2018-11-22T23:37:03.037Z,13.10
2018-11-22T23:42:06.261Z,12.30
2018-11-22T23:47:09.482Z,13.10
2018-11-22T23:52:12.784Z,11.40
2018-11-22T23:57:16.021Z,12.77
